sensor_id;sensor_type;location;lat;lon;timestamp;pressure;altitude;pressure_sealevel;temperature;humidity
38900;BME280;24660;43.238;26.576;2022-08-01T00:00:19;98920.47;;;20.88;60.76
38900;BME280;24660;43.238;26.576;2022-08-01T00:02:44;98918.94;;;20.72;61.08
38900;BME280;24660;43.238;26.576;2022-08-01T00:05:09;98922.03;;;20.63;61.08
38900;BME280;24660;43.238;26.576;2022-08-01T00:07:35;98918.31;;;20.70;61.59
38900;BME280;24660;43.238;26.576;2022-08-01T00:10:03;98921.94;;;20.84;60.87
38900;BME280;24660;43.238;26.576;2022-08-01T00:12:28;98924.31;;;20.59;61.81
38900;BME280;24660;43.238;26.576;2022-08-01T00:14:53;98929.69;;;20.53;61.69
38900;BME280;24660;43.238;26.576;2022-08-01T00:17:19;98924.97;;;20.33;62.61
38900;BME280;24660;43.238;26.576;2022-08-01T00:19:44;98929.25;;;20.49;62.57
38900;BME280;24660;43.238;26.576;2022-08-01T00:22:09;98926.63;;;20.34;62.66
38900;BME280;24660;43.238;26.576;2022-08-01T00:24:35;98926.69;;;20.41;62.24
38900;BME280;24660;43.238;26.576;2022-08-01T00:27:00;98929.97;;;20.64;61.91
38900;BME280;24660;43.238;26.576;2022-08-01T00:29:25;98923.41;;;20.45;62.56
38900;BME280;24660;43.238;26.576;2022-08-01T00:31:50;98923.09;;;20.40;62.74
38900;BME280;24660;43.238;26.576;2022-08-01T00:34:16;98913.19;;;20.20;63.83
38900;BME280;24660;43.238;26.576;2022-08-01T00:36:41;98918.50;;;20.34;63.14
38900;BME280;24660;43.238;26.576;2022-08-01T00:39:06;98902.53;;;20.18;63.69
38900;BME280;24660;43.238;26.576;2022-08-01T00:41:32;98907.25;;;20.09;64.40
38900;BME280;24660;43.238;26.576;2022-08-01T00:43:57;98904.81;;;20.14;63.95
38900;BME280;24660;43.238;26.576;2022-08-01T00:46:22;98906.50;;;20.22;64.00
38900;BME280;24660;43.238;26.576;2022-08-01T00:48:48;98900.97;;;20.02;64.43
38900;BME280;24660;43.238;26.576;2022-08-01T00:51:13;98901.47;;;20.19;63.70
38900;BME280;24660;43.238;26.576;2022-08-01T00:53:38;98895.47;;;19.96;64.62
38900;BME280;24660;43.238;26.576;2022-08-01T00:56:04;98904.28;;;20.32;63.97
38900;BME280;24660;43.238;26.576;2022-08-01T00:58:29;98901.06;;;20.15;63.97
38900;BME280;24660;43.238;26.576;2022-08-01T01:00:57;98893.88;;;20.08;64.05
38900;BME280;24660;43.238;26.576;2022-08-01T01:03:22;98899.47;;;20.28;63.71
38900;BME280;24660;43.238;26.576;2022-08-01T01:05:51;98899.84;;;19.97;64.19
38900;BME280;24660;43.238;26.576;2022-08-01T01:08:22;98902.31;;;20.20;64.50
38900;BME280;24660;43.238;26.576;2022-08-01T01:10:55;98903.78;;;19.88;65.15
38900;BME280;24660;43.238;26.576;2022-08-01T01:13:32;98897.50;;;19.87;65.58
38900;BME280;24660;43.238;26.576;2022-08-01T01:16:02;98901.34;;;19.99;64.77
38900;BME280;24660;43.238;26.576;2022-08-01T01:18:33;98905.25;;;20.18;64.10
38900;BME280;24660;43.238;26.576;2022-08-01T01:21:13;98900.47;;;20.27;64.00
38900;BME280;24660;43.238;26.576;2022-08-01T01:23:45;98897.59;;;20.00;65.10
38900;BME280;24660;43.238;26.576;2022-08-01T01:31:22;98894.88;;;19.72;65.88
38900;BME280;24660;43.238;26.576;2022-08-01T01:33:49;98897.03;;;19.83;65.69
38900;BME280;24660;43.238;26.576;2022-08-01T01:36:15;98897.75;;;19.92;65.41
38900;BME280;24660;43.238;26.576;2022-08-01T01:38:43;98896.50;;;19.95;64.93
38900;BME280;24660;43.238;26.576;2022-08-01T01:41:11;98891.59;;;19.55;66.43
38900;BME280;24660;43.238;26.576;2022-08-01T01:43:36;98886.53;;;19.52;66.86
38900;BME280;24660;43.238;26.576;2022-08-01T01:46:03;98883.25;;;19.36;67.27
38900;BME280;24660;43.238;26.576;2022-08-01T01:48:29;98877.84;;;19.36;67.50
38900;BME280;24660;43.238;26.576;2022-08-01T01:50:55;98873.66;;;19.54;66.03
38900;BME280;24660;43.238;26.576;2022-08-01T01:53:21;98867.91;;;19.43;66.85
38900;BME280;24660;43.238;26.576;2022-08-01T01:55:48;98873.50;;;19.41;66.94
38900;BME280;24660;43.238;26.576;2022-08-01T01:58:15;98879.44;;;19.51;66.82
38900;BME280;24660;43.238;26.576;2022-08-01T02:00:41;98884.50;;;19.54;66.50
38900;BME280;24660;43.238;26.576;2022-08-01T02:03:07;98879.75;;;19.42;66.59
38900;BME280;24660;43.238;26.576;2022-08-01T02:05:35;98879.72;;;19.35;66.58
38900;BME280;24660;43.238;26.576;2022-08-01T02:08:02;98882.63;;;19.34;67.04
38900;BME280;24660;43.238;26.576;2022-08-01T02:10:29;98870.94;;;19.33;67.04
38900;BME280;24660;43.238;26.576;2022-08-01T02:12:55;98872.97;;;19.10;67.96
38900;BME280;24660;43.238;26.576;2022-08-01T02:15:22;98865.44;;;19.48;66.88
38900;BME280;24660;43.238;26.576;2022-08-01T02:17:48;98868.34;;;19.25;67.66
38900;BME280;24660;43.238;26.576;2022-08-01T02:20:14;98865.50;;;19.33;67.27
38900;BME280;24660;43.238;26.576;2022-08-01T02:22:42;98869.66;;;19.29;66.96
38900;BME280;24660;43.238;26.576;2022-08-01T02:27:39;98870.66;;;19.28;67.78
38900;BME280;24660;43.238;26.576;2022-08-01T02:30:06;98866.94;;;19.29;68.22
38900;BME280;24660;43.238;26.576;2022-08-01T02:35:14;98857.44;;;19.40;67.14
38900;BME280;24660;43.238;26.576;2022-08-01T02:37:43;98866.56;;;19.32;66.96
38900;BME280;24660;43.238;26.576;2022-08-01T02:40:10;98862.78;;;19.12;67.67
38900;BME280;24660;43.238;26.576;2022-08-01T02:42:41;98869.38;;;19.24;67.54
38900;BME280;24660;43.238;26.576;2022-08-01T02:45:08;98868.63;;;19.30;67.83
38900;BME280;24660;43.238;26.576;2022-08-01T02:47:35;98861.06;;;19.04;68.18
38900;BME280;24660;43.238;26.576;2022-08-01T02:50:02;98867.06;;;19.21;68.01
38900;BME280;24660;43.238;26.576;2022-08-01T02:52:28;98866.34;;;18.91;69.57
38900;BME280;24660;43.238;26.576;2022-08-01T02:54:55;98865.25;;;19.07;68.38
38900;BME280;24660;43.238;26.576;2022-08-01T02:57:21;98860.34;;;18.95;68.91
38900;BME280;24660;43.238;26.576;2022-08-01T02:59:46;98854.47;;;19.13;69.24
38900;BME280;24660;43.238;26.576;2022-08-01T03:02:14;98856.94;;;19.30;68.37
38900;BME280;24660;43.238;26.576;2022-08-01T03:04:40;98856.47;;;19.05;69.09
38900;BME280;24660;43.238;26.576;2022-08-01T03:07:07;98862.41;;;19.36;67.72
38900;BME280;24660;43.238;26.576;2022-08-01T03:09:35;98870.41;;;19.23;68.80
38900;BME280;24660;43.238;26.576;2022-08-01T03:12:01;98864.56;;;18.83;69.08
38900;BME280;24660;43.238;26.576;2022-08-01T03:14:27;98860.38;;;18.81;69.56
38900;BME280;24660;43.238;26.576;2022-08-01T03:16:55;98858.44;;;18.75;70.75
38900;BME280;24660;43.238;26.576;2022-08-01T03:19:22;98854.25;;;18.72;70.73
38900;BME280;24660;43.238;26.576;2022-08-01T03:21:49;98855.50;;;18.91;70.03
38900;BME280;24660;43.238;26.576;2022-08-01T03:24:14;98860.56;;;19.15;68.60
38900;BME280;24660;43.238;26.576;2022-08-01T03:26:41;98862.38;;;19.30;68.15
38900;BME280;24660;43.238;26.576;2022-08-01T03:29:10;98865.00;;;19.02;69.07
38900;BME280;24660;43.238;26.576;2022-08-01T03:31:37;98863.53;;;18.84;70.44
38900;BME280;24660;43.238;26.576;2022-08-01T03:34:03;98857.88;;;18.79;70.60
38900;BME280;24660;43.238;26.576;2022-08-01T03:36:29;98860.88;;;19.06;70.37
38900;BME280;24660;43.238;26.576;2022-08-01T03:38:56;98859.47;;;19.31;68.03
38900;BME280;24660;43.238;26.576;2022-08-01T03:41:23;98863.69;;;19.40;67.80
38900;BME280;24660;43.238;26.576;2022-08-01T03:44:00;98864.00;;;19.52;67.45
38900;BME280;24660;43.238;26.576;2022-08-01T03:46:29;98858.28;;;19.62;66.33
38900;BME280;24660;43.238;26.576;2022-08-01T03:48:58;98858.06;;;19.42;67.80
38900;BME280;24660;43.238;26.576;2022-08-01T03:51:25;98851.59;;;19.58;65.58
38900;BME280;24660;43.238;26.576;2022-08-01T03:53:50;98854.88;;;19.81;65.74
38900;BME280;24660;43.238;26.576;2022-08-01T03:56:18;98855.25;;;19.99;64.72
38900;BME280;24660;43.238;26.576;2022-08-01T03:58:44;98864.84;;;20.02;64.61
38900;BME280;24660;43.238;26.576;2022-08-01T04:01:10;98867.16;;;19.77;65.56
38900;BME280;24660;43.238;26.576;2022-08-01T04:03:35;98864.34;;;19.64;65.54
38900;BME280;24660;43.238;26.576;2022-08-01T04:06:03;98857.25;;;19.63;65.50
38900;BME280;24660;43.238;26.576;2022-08-01T04:08:37;98863.13;;;19.94;64.00
38900;BME280;24660;43.238;26.576;2022-08-01T04:11:03;98864.16;;;19.93;64.48
38900;BME280;24660;43.238;26.576;2022-08-01T04:13:28;98864.97;;;19.87;64.92
38900;BME280;24660;43.238;26.576;2022-08-01T04:15:53;98865.06;;;20.07;63.74
38900;BME280;24660;43.238;26.576;2022-08-01T04:18:19;98869.47;;;20.08;63.55
38900;BME280;24660;43.238;26.576;2022-08-01T04:20:46;98855.56;;;20.24;62.82
38900;BME280;24660;43.238;26.576;2022-08-01T04:23:11;98867.28;;;20.25;62.73
38900;BME280;24660;43.238;26.576;2022-08-01T04:25:37;98855.56;;;20.17;62.66
38900;BME280;24660;43.238;26.576;2022-08-01T04:28:05;98859.19;;;20.38;61.64
38900;BME280;24660;43.238;26.576;2022-08-01T04:30:33;98861.19;;;20.51;61.06
38900;BME280;24660;43.238;26.576;2022-08-01T04:33:00;98860.75;;;20.47;60.39
38900;BME280;24660;43.238;26.576;2022-08-01T04:35:26;98860.38;;;20.57;60.07
38900;BME280;24660;43.238;26.576;2022-08-01T04:37:52;98851.47;;;20.69;59.39
38900;BME280;24660;43.238;26.576;2022-08-01T04:40:18;98856.06;;;20.82;58.56
38900;BME280;24660;43.238;26.576;2022-08-01T04:42:47;98852.00;;;21.13;58.07
38900;BME280;24660;43.238;26.576;2022-08-01T04:45:14;98858.09;;;21.34;57.24
38900;BME280;24660;43.238;26.576;2022-08-01T04:47:39;98860.75;;;21.08;57.81
38900;BME280;24660;43.238;26.576;2022-08-01T04:50:05;98852.88;;;21.46;56.83
38900;BME280;24660;43.238;26.576;2022-08-01T04:52:33;98846.94;;;21.10;57.29
38900;BME280;24660;43.238;26.576;2022-08-01T04:54:59;98850.78;;;21.48;56.08
38900;BME280;24660;43.238;26.576;2022-08-01T04:57:25;98851.44;;;21.44;56.00
38900;BME280;24660;43.238;26.576;2022-08-01T04:59:50;98843.66;;;21.67;55.70
38900;BME280;24660;43.238;26.576;2022-08-01T05:02:21;98848.91;;;21.75;55.64
38900;BME280;24660;43.238;26.576;2022-08-01T05:04:47;98848.50;;;21.65;54.72
38900;BME280;24660;43.238;26.576;2022-08-01T05:07:12;98847.44;;;21.66;54.15
38900;BME280;24660;43.238;26.576;2022-08-01T05:09:38;98848.03;;;21.94;54.17
38900;BME280;24660;43.238;26.576;2022-08-01T05:12:04;98843.06;;;21.65;55.01
38900;BME280;24660;43.238;26.576;2022-08-01T05:14:30;98841.81;;;21.74;54.65
38900;BME280;24660;43.238;26.576;2022-08-01T05:16:58;98844.09;;;21.77;55.13
38900;BME280;24660;43.238;26.576;2022-08-01T05:19:24;98844.53;;;21.61;53.95
38900;BME280;24660;43.238;26.576;2022-08-01T05:21:50;98840.53;;;21.97;53.84
38900;BME280;24660;43.238;26.576;2022-08-01T05:24:15;98849.47;;;22.23;53.51
38900;BME280;24660;43.238;26.576;2022-08-01T05:26:41;98840.06;;;22.26;52.65
38900;BME280;24660;43.238;26.576;2022-08-01T05:29:06;98845.31;;;22.21;52.93
38900;BME280;24660;43.238;26.576;2022-08-01T05:31:32;98846.38;;;22.13;52.63
38900;BME280;24660;43.238;26.576;2022-08-01T05:33:59;98846.78;;;22.04;52.24
38900;BME280;24660;43.238;26.576;2022-08-01T05:36:25;98837.16;;;22.08;51.55
38900;BME280;24660;43.238;26.576;2022-08-01T05:38:50;98832.53;;;22.21;52.19
38900;BME280;24660;43.238;26.576;2022-08-01T05:41:15;98828.28;;;22.45;50.79
38900;BME280;24660;43.238;26.576;2022-08-01T05:43:40;98839.72;;;22.61;50.62
38900;BME280;24660;43.238;26.576;2022-08-01T05:46:06;98824.16;;;22.74;50.22
38900;BME280;24660;43.238;26.576;2022-08-01T05:48:31;98836.25;;;22.92;50.26
38900;BME280;24660;43.238;26.576;2022-08-01T05:50:57;98832.69;;;22.91;49.05
38900;BME280;24660;43.238;26.576;2022-08-01T05:53:22;98831.47;;;22.80;49.54
38900;BME280;24660;43.238;26.576;2022-08-01T05:55:47;98839.84;;;22.79;49.51
38900;BME280;24660;43.238;26.576;2022-08-01T05:58:13;98834.88;;;22.69;48.85
38900;BME280;24660;43.238;26.576;2022-08-01T06:00:38;98831.00;;;22.97;49.29
38900;BME280;24660;43.238;26.576;2022-08-01T06:03:04;98834.19;;;23.19;48.95
38900;BME280;24660;43.238;26.576;2022-08-01T06:05:29;98837.81;;;23.13;49.25
38900;BME280;24660;43.238;26.576;2022-08-01T06:07:54;98835.22;;;22.79;48.55
38900;BME280;24660;43.238;26.576;2022-08-01T06:10:20;98826.31;;;23.04;48.49
38900;BME280;24660;43.238;26.576;2022-08-01T06:12:45;98824.72;;;22.90;48.76
38900;BME280;24660;43.238;26.576;2022-08-01T06:15:10;98818.63;;;22.94;48.36
38900;BME280;24660;43.238;26.576;2022-08-01T06:17:36;98824.34;;;23.18;48.47
38900;BME280;24660;43.238;26.576;2022-08-01T06:20:04;98823.22;;;23.00;49.02
38900;BME280;24660;43.238;26.576;2022-08-01T06:22:31;98828.56;;;22.75;49.12
38900;BME280;24660;43.238;26.576;2022-08-01T06:24:56;98811.34;;;22.81;49.60
38900;BME280;24660;43.238;26.576;2022-08-01T06:27:21;98810.81;;;23.04;49.65
38900;BME280;24660;43.238;26.576;2022-08-01T06:29:47;98809.41;;;23.27;48.94
38900;BME280;24660;43.238;26.576;2022-08-01T06:32:13;98816.56;;;22.90;48.93
38900;BME280;24660;43.238;26.576;2022-08-01T06:34:39;98819.78;;;23.12;49.13
38900;BME280;24660;43.238;26.576;2022-08-01T06:37:04;98808.16;;;22.91;49.00
38900;BME280;24660;43.238;26.576;2022-08-01T06:39:29;98810.00;;;23.29;49.52
38900;BME280;24660;43.238;26.576;2022-08-01T06:41:55;98804.28;;;23.37;49.22
38900;BME280;24660;43.238;26.576;2022-08-01T06:44:23;98809.56;;;23.57;48.33
38900;BME280;24660;43.238;26.576;2022-08-01T06:46:48;98798.56;;;23.70;48.98
38900;BME280;24660;43.238;26.576;2022-08-01T06:49:13;98807.69;;;23.82;48.25
38900;BME280;24660;43.238;26.576;2022-08-01T06:51:39;98818.63;;;23.82;47.55
38900;BME280;24660;43.238;26.576;2022-08-01T06:54:04;98794.91;;;24.01;48.15
38900;BME280;24660;43.238;26.576;2022-08-01T06:56:30;98796.25;;;24.35;46.54
38900;BME280;24660;43.238;26.576;2022-08-01T06:58:55;98788.16;;;24.04;47.38
38900;BME280;24660;43.238;26.576;2022-08-01T07:01:25;98789.97;;;24.28;47.13
38900;BME280;24660;43.238;26.576;2022-08-01T07:03:51;98795.13;;;23.99;46.84
38900;BME280;24660;43.238;26.576;2022-08-01T07:06:17;98794.53;;;24.34;47.33
38900;BME280;24660;43.238;26.576;2022-08-01T07:08:42;98796.25;;;23.92;46.95
38900;BME280;24660;43.238;26.576;2022-08-01T07:11:08;98796.38;;;23.79;48.01
38900;BME280;24660;43.238;26.576;2022-08-01T07:13:33;98794.47;;;24.22;47.09
38900;BME280;24660;43.238;26.576;2022-08-01T07:15:58;98797.69;;;24.38;47.22
38900;BME280;24660;43.238;26.576;2022-08-01T07:18:24;98793.09;;;24.32;47.52
38900;BME280;24660;43.238;26.576;2022-08-01T07:20:49;98788.06;;;24.28;47.50
38900;BME280;24660;43.238;26.576;2022-08-01T07:23:15;98789.38;;;24.44;46.56
38900;BME280;24660;43.238;26.576;2022-08-01T07:25:41;98785.91;;;23.76;48.10
38900;BME280;24660;43.238;26.576;2022-08-01T07:28:06;98792.31;;;24.06;47.31
38900;BME280;24660;43.238;26.576;2022-08-01T07:30:31;98789.00;;;24.41;47.19
38900;BME280;24660;43.238;26.576;2022-08-01T07:32:57;98786.19;;;24.47;46.78
38900;BME280;24660;43.238;26.576;2022-08-01T07:35:22;98785.22;;;24.23;47.16
38900;BME280;24660;43.238;26.576;2022-08-01T07:37:50;98797.28;;;24.34;46.26
38900;BME280;24660;43.238;26.576;2022-08-01T07:40:17;98789.31;;;24.51;46.74
38900;BME280;24660;43.238;26.576;2022-08-01T07:42:42;98796.47;;;24.82;46.15
38900;BME280;24660;43.238;26.576;2022-08-01T07:45:10;98794.22;;;25.09;45.92
38900;BME280;24660;43.238;26.576;2022-08-01T07:47:35;98784.91;;;25.63;45.11
38900;BME280;24660;43.238;26.576;2022-08-01T07:50:02;98802.88;;;25.06;45.84
38900;BME280;24660;43.238;26.576;2022-08-01T07:52:28;98799.25;;;25.47;45.48
38900;BME280;24660;43.238;26.576;2022-08-01T07:54:55;98805.16;;;24.91;46.45
38900;BME280;24660;43.238;26.576;2022-08-01T07:57:21;98796.88;;;25.27;45.22
38900;BME280;24660;43.238;26.576;2022-08-01T07:59:47;98798.19;;;24.76;46.59
38900;BME280;24660;43.238;26.576;2022-08-01T08:02:12;98800.75;;;25.08;45.99
38900;BME280;24660;43.238;26.576;2022-08-01T08:04:37;98799.31;;;25.17;46.01
38900;BME280;24660;43.238;26.576;2022-08-01T08:07:03;98796.47;;;25.12;46.30
38900;BME280;24660;43.238;26.576;2022-08-01T08:09:28;98802.19;;;25.10;46.12
38900;BME280;24660;43.238;26.576;2022-08-01T08:11:53;98799.97;;;25.42;46.31
38900;BME280;24660;43.238;26.576;2022-08-01T08:14:19;98800.41;;;25.16;46.00
38900;BME280;24660;43.238;26.576;2022-08-01T08:16:44;98804.13;;;25.33;45.79
38900;BME280;24660;43.238;26.576;2022-08-01T08:19:10;98797.47;;;24.69;46.58
38900;BME280;24660;43.238;26.576;2022-08-01T08:21:36;98802.84;;;25.36;45.68
38900;BME280;24660;43.238;26.576;2022-08-01T08:24:02;98805.50;;;25.66;44.90
38900;BME280;24660;43.238;26.576;2022-08-01T08:26:43;98806.09;;;25.68;44.66
38900;BME280;24660;43.238;26.576;2022-08-01T08:29:08;98795.31;;;25.31;45.40
38900;BME280;24660;43.238;26.576;2022-08-01T08:31:33;98808.00;;;26.02;44.75
38900;BME280;24660;43.238;26.576;2022-08-01T08:33:59;98813.13;;;26.11;44.34
38900;BME280;24660;43.238;26.576;2022-08-01T08:36:24;98820.75;;;26.20;44.05
38900;BME280;24660;43.238;26.576;2022-08-01T08:38:49;98816.28;;;26.54;43.79
38900;BME280;24660;43.238;26.576;2022-08-01T08:41:15;98817.88;;;26.39;43.51
38900;BME280;24660;43.238;26.576;2022-08-01T08:43:40;98809.16;;;26.42;43.60
38900;BME280;24660;43.238;26.576;2022-08-01T08:46:05;98813.00;;;24.87;46.24
38900;BME280;24660;43.238;26.576;2022-08-01T08:48:32;98826.16;;;24.60;46.53
38900;BME280;24660;43.238;26.576;2022-08-01T08:50:58;98803.53;;;24.71;46.89
38900;BME280;24660;43.238;26.576;2022-08-01T08:53:25;98789.16;;;24.64;47.30
38900;BME280;24660;43.238;26.576;2022-08-01T08:55:51;98803.72;;;25.83;45.38
38900;BME280;24660;43.238;26.576;2022-08-01T08:58:17;98809.22;;;26.07;44.70
38900;BME280;24660;43.238;26.576;2022-08-01T09:00:43;98795.41;;;25.78;45.39
38900;BME280;24660;43.238;26.576;2022-08-01T09:03:08;98810.03;;;26.07;44.97
38900;BME280;24660;43.238;26.576;2022-08-01T09:05:33;98802.66;;;26.19;44.12
38900;BME280;24660;43.238;26.576;2022-08-01T09:07:59;98812.41;;;26.15;44.75
38900;BME280;24660;43.238;26.576;2022-08-01T09:10:24;98813.47;;;25.67;45.18
38900;BME280;24660;43.238;26.576;2022-08-01T09:15:41;98814.78;;;26.12;45.13
38900;BME280;24660;43.238;26.576;2022-08-01T09:18:06;98815.63;;;25.89;45.64
38900;BME280;24660;43.238;26.576;2022-08-01T09:20:32;98800.78;;;26.88;44.13
38900;BME280;24660;43.238;26.576;2022-08-01T09:23:00;98809.50;;;27.14;43.44
38900;BME280;24660;43.238;26.576;2022-08-01T09:25:25;98814.69;;;27.27;43.31
38900;BME280;24660;43.238;26.576;2022-08-01T09:28:05;98807.13;;;26.60;44.67
38900;BME280;24660;43.238;26.576;2022-08-01T09:30:36;98819.28;;;27.21;43.75
38900;BME280;24660;43.238;26.576;2022-08-01T09:33:02;98818.16;;;27.06;44.06
38900;BME280;24660;43.238;26.576;2022-08-01T09:35:31;98814.81;;;26.75;45.40
38900;BME280;24660;43.238;26.576;2022-08-01T09:40:48;98808.28;;;27.21;45.46
38900;BME280;24660;43.238;26.576;2022-08-01T09:43:14;98817.00;;;26.61;46.43
38900;BME280;24660;43.238;26.576;2022-08-01T09:45:39;98825.66;;;27.10;45.78
38900;BME280;24660;43.238;26.576;2022-08-01T09:48:08;98810.41;;;27.31;45.80
38900;BME280;24660;43.238;26.576;2022-08-01T09:50:41;98820.06;;;27.50;45.83
38900;BME280;24660;43.238;26.576;2022-08-01T09:53:07;98814.44;;;27.29;46.65
38900;BME280;24660;43.238;26.576;2022-08-01T09:55:32;98832.31;;;26.74;48.05
38900;BME280;24660;43.238;26.576;2022-08-01T09:57:58;98814.34;;;25.80;49.70
38900;BME280;24660;43.238;26.576;2022-08-01T10:00:25;98829.31;;;26.24;50.25
38900;BME280;24660;43.238;26.576;2022-08-01T10:02:51;98833.00;;;26.81;48.04
38900;BME280;24660;43.238;26.576;2022-08-01T10:05:16;98829.56;;;27.14;47.83
38900;BME280;24660;43.238;26.576;2022-08-01T10:10:22;98836.09;;;26.85;48.04
38900;BME280;24660;43.238;26.576;2022-08-01T10:12:51;98834.03;;;27.49;47.04
38900;BME280;24660;43.238;26.576;2022-08-01T10:15:17;98827.22;;;27.06;48.41
38900;BME280;24660;43.238;26.576;2022-08-01T10:20:26;98836.88;;;27.71;47.62
38900;BME280;24660;43.238;26.576;2022-08-01T10:22:52;98839.66;;;27.26;48.92
38900;BME280;24660;43.238;26.576;2022-08-01T10:25:18;98834.31;;;27.19;48.71
38900;BME280;24660;43.238;26.576;2022-08-01T10:27:44;98827.75;;;27.65;47.98
38900;BME280;24660;43.238;26.576;2022-08-01T10:30:14;98840.50;;;27.43;47.90
38900;BME280;24660;43.238;26.576;2022-08-01T10:32:40;98833.75;;;27.17;48.26
38900;BME280;24660;43.238;26.576;2022-08-01T10:35:07;98832.25;;;27.26;47.86
38900;BME280;24660;43.238;26.576;2022-08-01T10:37:33;98815.66;;;27.04;48.30
38900;BME280;24660;43.238;26.576;2022-08-01T10:40:00;98822.91;;;26.70;48.95
38900;BME280;24660;43.238;26.576;2022-08-01T10:42:26;98828.66;;;27.88;47.39
38900;BME280;24660;43.238;26.576;2022-08-01T10:44:52;98827.22;;;28.02;46.35
38900;BME280;24660;43.238;26.576;2022-08-01T10:47:20;98822.16;;;27.94;47.50
38900;BME280;24660;43.238;26.576;2022-08-01T10:49:58;98820.44;;;28.26;46.46
38900;BME280;24660;43.238;26.576;2022-08-01T10:52:26;98823.00;;;28.33;46.41
38900;BME280;24660;43.238;26.576;2022-08-01T11:00:18;98820.34;;;27.20;48.33
38900;BME280;24660;43.238;26.576;2022-08-01T11:02:56;98808.25;;;27.84;47.36
38900;BME280;24660;43.238;26.576;2022-08-01T11:05:22;98799.34;;;27.76;47.48
38900;BME280;24660;43.238;26.576;2022-08-01T11:07:48;98807.84;;;28.14;47.53
38900;BME280;24660;43.238;26.576;2022-08-01T11:12:42;98809.00;;;27.62;47.38
38900;BME280;24660;43.238;26.576;2022-08-01T11:17:35;98800.22;;;28.16;47.40
38900;BME280;24660;43.238;26.576;2022-08-01T11:20:04;98798.44;;;27.88;47.60
38900;BME280;24660;43.238;26.576;2022-08-01T11:22:30;98798.53;;;27.76;47.81
38900;BME280;24660;43.238;26.576;2022-08-01T11:24:55;98787.66;;;28.42;46.67
38900;BME280;24660;43.238;26.576;2022-08-01T11:27:24;98794.69;;;28.76;45.78
38900;BME280;24660;43.238;26.576;2022-08-01T11:30:27;98785.88;;;28.14;46.94
38900;BME280;24660;43.238;26.576;2022-08-01T11:35:16;98785.16;;;28.40;47.35
38900;BME280;24660;43.238;26.576;2022-08-01T11:37:42;98774.91;;;29.01;46.66
38900;BME280;24660;43.238;26.576;2022-08-01T11:42:48;98786.94;;;28.73;46.26
38900;BME280;24660;43.238;26.576;2022-08-01T11:45:14;98784.69;;;28.70;45.30
38900;BME280;24660;43.238;26.576;2022-08-01T11:47:47;98776.25;;;28.55;45.69
38900;BME280;24660;43.238;26.576;2022-08-01T11:50:34;98783.72;;;28.81;45.09
38900;BME280;24660;43.238;26.576;2022-08-01T11:52:59;98783.16;;;29.01;45.16
38900;BME280;24660;43.238;26.576;2022-08-01T11:55:28;98774.78;;;29.18;45.12
38900;BME280;24660;43.238;26.576;2022-08-01T11:58:04;98767.78;;;28.83;45.49
38900;BME280;24660;43.238;26.576;2022-08-01T12:00:30;98766.97;;;28.17;48.07
38900;BME280;24660;43.238;26.576;2022-08-01T12:02:57;98763.47;;;28.87;46.72
38900;BME280;24660;43.238;26.576;2022-08-01T12:05:23;98779.38;;;28.20;46.94
38900;BME280;24660;43.238;26.576;2022-08-01T12:07:50;98759.88;;;28.21;47.38
38900;BME280;24660;43.238;26.576;2022-08-01T12:10:16;98766.22;;;28.87;46.42
38900;BME280;24660;43.238;26.576;2022-08-01T12:15:09;98769.50;;;29.43;45.86
38900;BME280;24660;43.238;26.576;2022-08-01T12:17:35;98774.09;;;29.65;45.26
38900;BME280;24660;43.238;26.576;2022-08-01T12:20:01;98778.69;;;29.91;43.88
38900;BME280;24660;43.238;26.576;2022-08-01T12:22:28;98764.91;;;28.95;45.61
38900;BME280;24660;43.238;26.576;2022-08-01T12:24:53;98769.41;;;29.65;45.44
38900;BME280;24660;43.238;26.576;2022-08-01T12:27:27;98769.56;;;29.85;44.54
38900;BME280;24660;43.238;26.576;2022-08-01T12:29:52;98760.06;;;30.08;44.32
38900;BME280;24660;43.238;26.576;2022-08-01T12:37:42;98763.31;;;30.58;43.59
38900;BME280;24660;43.238;26.576;2022-08-01T12:40:09;98754.06;;;29.79;43.48
38900;BME280;24660;43.238;26.576;2022-08-01T12:42:39;98756.31;;;30.30;43.26
38900;BME280;24660;43.238;26.576;2022-08-01T12:45:05;98743.75;;;29.60;44.72
38900;BME280;24660;43.238;26.576;2022-08-01T12:47:32;98751.56;;;29.73;45.35
38900;BME280;24660;43.238;26.576;2022-08-01T12:49:57;98753.03;;;29.85;44.16
38900;BME280;24660;43.238;26.576;2022-08-01T12:52:23;98752.84;;;30.60;43.25
38900;BME280;24660;43.238;26.576;2022-08-01T12:57:29;98759.34;;;31.72;38.98
38900;BME280;24660;43.238;26.576;2022-08-01T13:02:35;98748.31;;;31.11;40.08
38900;BME280;24660;43.238;26.576;2022-08-01T13:05:03;98757.78;;;32.51;37.84
38900;BME280;24660;43.238;26.576;2022-08-01T13:07:37;98759.56;;;32.86;36.61
38900;BME280;24660;43.238;26.576;2022-08-01T13:10:03;98751.03;;;34.14;36.22
38900;BME280;24660;43.238;26.576;2022-08-01T13:12:29;98753.63;;;34.96;34.95
38900;BME280;24660;43.238;26.576;2022-08-01T13:14:55;98766.78;;;35.93;32.65
38900;BME280;24660;43.238;26.576;2022-08-01T13:20:03;98761.88;;;35.38;33.99
38900;BME280;24660;43.238;26.576;2022-08-01T13:22:34;98751.41;;;35.49;32.95
38900;BME280;24660;43.238;26.576;2022-08-01T13:25:15;98752.53;;;33.72;34.84
38900;BME280;24660;43.238;26.576;2022-08-01T13:27:42;98754.63;;;32.83;36.45
38900;BME280;24660;43.238;26.576;2022-08-01T13:30:15;98755.09;;;32.90;36.45
38900;BME280;24660;43.238;26.576;2022-08-01T13:32:42;98749.06;;;32.78;36.76
38900;BME280;24660;43.238;26.576;2022-08-01T13:35:10;98750.22;;;33.55;36.00
38900;BME280;24660;43.238;26.576;2022-08-01T13:37:38;98752.44;;;32.70;36.37
38900;BME280;24660;43.238;26.576;2022-08-01T13:40:04;98763.03;;;33.46;36.35